Time;durP1;ratioP1;P1;durP2;ratioP2;P2;SDS_P1;SDS_P2;PMS_P1;PMS_P2;Temp;Humidity;BMP_temperature;BMP_pressure;BME280_temperature;BME280_humidity;BME280_pressure;Samples;Min_cycle;Max_cycle;Signal;HPM_P1;HPM_P2
2021/08/30 00:01:16;;;;;;;13.68;5.47;;;16.00;99.90;;;;;;5076047;28;20085;-78
2021/08/30 00:03:42;;;;;;;13.15;5.20;;;15.90;99.90;;;;;;5075727;28;20099;-79
2021/08/30 00:06:07;;;;;;;10.15;4.93;;;15.70;99.90;;;;;;5076292;28;20029;-78
2021/08/30 00:08:33;;;;;;;;;;;15.60;99.90;;;;;;5076430;28;20496;-78
2021/08/30 00:10:58;;;;;;;;;;;15.50;99.90;;;;;;5076350;28;19904;-78
2021/08/30 00:13:24;;;;;;;;;;;15.60;99.90;;;;;;5076282;28;20310;-77
2021/08/30 00:15:50;;;;;;;;;;;15.60;99.90;;;;;;5076166;28;19904;-78
2021/08/30 00:18:15;;;;;;;;;;;15.60;99.90;;;;;;5076127;28;19904;-78
2021/08/30 00:20:41;;;;;;;10.93;5.07;;;15.50;99.90;;;;;;5075710;28;19908;-78
2021/08/30 00:23:07;;;;;;;11.13;5.03;;;15.30;99.90;;;;;;5075912;28;20113;-78
2021/08/30 00:25:33;;;;;;;11.40;5.45;;;15.40;99.90;;;;;;5075534;28;20024;-77
2021/08/30 00:27:58;;;;;;;;;;;15.40;99.90;;;;;;5075926;28;20032;-79
2021/08/30 00:30:24;;;;;;;9.95;4.72;;;15.40;99.90;;;;;;5072984;28;19911;-79
2021/08/30 00:32:50;;;;;;;13.10;5.88;;;15.50;99.90;;;;;;5075413;28;20028;-78
2021/08/30 00:35:16;;;;;;;10.77;5.40;;;15.40;99.90;;;;;;5075018;28;20025;-78
2021/08/30 00:37:41;;;;;;;12.95;5.60;;;15.50;99.90;;;;;;5075322;28;20020;-78
2021/08/30 00:40:08;;;;;;;;;;;15.50;99.90;;;;;;5075737;28;20024;-78
2021/08/30 00:42:34;;;;;;;11.90;5.72;;;15.30;99.90;;;;;;5075221;28;20322;-77
2021/08/30 00:45:09;;;;;;;12.38;5.55;;;15.30;99.90;;;;;;5075211;28;20028;-78
2021/08/30 00:47:37;;;;;;;13.13;6.30;;;15.30;99.90;;;;;;5073667;28;20024;-77
2021/08/30 00:50:08;;;;;;;12.98;5.47;;;15.30;99.90;;;;;;5075123;28;20392;-78
2021/08/30 00:52:34;;;;;;;14.07;5.82;;;15.20;99.90;;;;;;5075101;28;20028;-78
2021/08/30 00:55:00;;;;;;;11.52;5.53;;;15.30;99.90;;;;;;5075179;28;20541;-77
2021/08/30 00:57:26;;;;;;;;;;;15.30;99.90;;;;;;5075413;28;20024;-78
2021/08/30 00:59:52;;;;;;;15.85;5.97;;;15.30;99.90;;;;;;5074926;28;19931;-79
2021/08/30 01:02:18;;;;;;;9.68;5.15;;;15.20;99.90;;;;;;5074922;28;20036;-78
2021/08/30 01:04:45;;;;;;;11.40;5.25;;;15.40;99.90;;;;;;5073120;28;20051;-78
2021/08/30 01:07:25;;;;;;;12.55;5.40;;;15.40;99.90;;;;;;5074752;28;20185;-78
2021/08/30 01:10:07;;;;;;;12.60;5.38;;;15.60;99.90;;;;;;5074746;28;20027;-77
2021/08/30 01:12:42;;;;;;;10.30;5.20;;;15.50;99.90;;;;;;5074698;28;20024;-77
2021/08/30 01:15:11;;;;;;;12.57;5.55;;;15.40;99.90;;;;;;5074750;28;20050;-79
2021/08/30 01:17:38;;;;;;;12.40;5.60;;;15.50;99.90;;;;;;5074592;28;20025;-78
2021/08/30 01:20:30;;;;;;;12.27;5.50;;;15.40;99.90;;;;;;5074533;28;20028;-78
2021/08/30 01:22:57;;;;;;;14.13;5.63;;;15.30;99.90;;;;;;5065813;28;20043;-77
2021/08/30 01:25:24;;;;;;;14.90;5.63;;;15.40;99.90;;;;;;5074266;28;20029;-78
2021/08/30 01:27:52;;;;;;;12.15;5.50;;;15.40;99.90;;;;;;5074334;28;20016;-78
2021/08/30 01:30:21;;;;;;;12.43;6.13;;;15.40;99.90;;;;;;5074321;28;20020;-78
2021/08/30 01:32:51;;;;;;;14.32;5.65;;;15.20;99.90;;;;;;5074229;28;20020;-78
2021/08/30 01:35:19;;;;;;;11.55;5.35;;;15.20;99.90;;;;;;5074255;28;20029;-78
2021/08/30 01:37:48;;;;;;;13.40;5.90;;;15.20;99.90;;;;;;5074114;28;20062;-77
2021/08/30 01:40:17;;;;;;;13.13;5.40;;;15.20;99.90;;;;;;5074083;28;20027;-78
2021/08/30 01:42:45;;;;;;;14.10;5.32;;;15.10;99.90;;;;;;5072446;28;20028;-78
2021/08/30 01:45:13;;;;;;;11.00;5.20;;;14.90;99.90;;;;;;5074022;28;20106;-79
2021/08/30 01:47:42;;;;;;;10.95;4.93;;;15.20;99.90;;;;;;5074013;28;20024;-77
2021/08/30 01:50:11;;;;;;;13.68;6.03;;;15.20;99.90;;;;;;5073939;28;20116;-78
2021/08/30 01:52:39;;;;;;;10.65;4.70;;;15.10;99.90;;;;;;5074060;28;20071;-78
2021/08/30 01:55:25;;;;;;;11.90;5.53;;;15.10;99.90;;;;;;5073972;28;20013;-77
2021/08/30 02:03:07;;;;;;;11.50;4.90;;;14.90;99.90;;;;;;5073626;28;20119;-78
2021/08/30 02:05:33;;;;;;;10.68;4.63;;;14.80;99.90;;;;;;5073685;28;20456;-78
2021/08/30 02:07:59;;;;;;;10.57;4.82;;;14.80;99.90;;;;;;5074027;28;20029;-77
2021/08/30 02:10:24;;;;;;;12.57;5.05;;;14.80;99.90;;;;;;5073643;28;20107;-79
2021/08/30 02:12:50;;;;;;;11.70;5.35;;;14.80;99.90;;;;;;5073618;28;20024;-78
2021/08/30 02:15:16;;;;;;;12.95;4.53;;;14.90;99.90;;;;;;5073554;28;20128;-78
2021/08/30 02:17:47;;;;;;;11.25;4.70;;;15.00;99.90;;;;;;5073485;28;20021;-77
2021/08/30 02:20:17;;;;;;;11.63;4.55;;;15.10;99.90;;;;;;5073640;28;20032;-77
2021/08/30 02:22:44;;;;;;;13.45;4.80;;;15.20;99.90;;;;;;5072139;28;20404;-78
2021/08/30 02:25:17;;;;;;;12.80;5.03;;;15.00;99.90;;;;;;5073340;28;20027;-78
2021/08/30 02:27:51;;;;;;;12.73;5.22;;;15.00;99.90;;;;;;5073629;28;20021;-78
2021/08/30 02:30:34;;;;;;;14.10;5.03;;;15.10;99.90;;;;;;5073338;28;20447;-78
2021/08/30 02:33:08;;;;;;;12.95;4.97;;;15.20;99.90;;;;;;5073281;28;20473;-78
2021/08/30 02:35:38;;;;;;;10.95;4.82;;;15.10;99.90;;;;;;5073320;28;20074;-77
2021/08/30 02:38:04;;;;;;;13.70;5.03;;;15.00;99.90;;;;;;5073539;28;20047;-77
2021/08/30 02:40:31;;;;;;;11.95;4.75;;;14.80;99.90;;;;;;5073239;28;20021;-78
2021/08/30 02:43:00;;;;;;;11.23;4.90;;;14.70;99.90;;;;;;5073439;28;20021;-77
2021/08/30 02:45:27;;;;;;;14.25;4.88;;;14.70;99.90;;;;;;5073234;28;20037;-77
2021/08/30 02:47:55;;;;;;;13.13;5.00;;;14.70;99.90;;;;;;5073055;28;20039;-78
2021/08/30 02:50:22;;;;;;;11.95;4.90;;;14.70;99.90;;;;;;5073296;28;20397;-78
2021/08/30 02:52:49;;;;;;;9.70;4.35;;;14.70;99.90;;;;;;5073390;28;20013;-78
2021/08/30 02:55:14;;;;;;;12.77;4.60;;;14.70;99.90;;;;;;5077356;28;20118;-77
2021/08/30 02:57:41;;;;;;;13.63;4.55;;;14.60;99.90;;;;;;5077237;28;20024;-77
2021/08/30 03:00:09;;;;;;;12.57;4.40;;;14.50;99.90;;;;;;5077362;28;20025;-77
2021/08/30 03:02:37;;;;;;;10.75;4.20;;;14.60;99.90;;;;;;5076960;28;20081;-76
2021/08/30 03:05:03;;;;;;;13.35;4.90;;;14.50;99.90;;;;;;5075590;28;20036;-78
2021/08/30 03:07:31;;;;;;;13.68;4.82;;;14.50;99.90;;;;;;5077045;28;20107;-78
2021/08/30 03:09:59;;;;;;;11.45;4.25;;;14.60;99.90;;;;;;5077449;28;20024;-78
2021/08/30 03:12:28;;;;;;;9.98;3.95;;;14.60;99.90;;;;;;5076936;28;20029;-78
2021/08/30 03:14:58;;;;;;;14.80;4.90;;;14.80;99.90;;;;;;5076883;28;20031;-78
2021/08/30 03:17:23;;;;;;;12.32;4.72;;;14.90;99.90;;;;;;5076946;28;20016;-78
2021/08/30 03:19:52;;;;;;;13.48;4.43;;;14.90;99.90;;;;;;5076829;28;20027;-77
2021/08/30 03:22:19;;;;;;;12.07;4.10;;;14.80;99.90;;;;;;5076784;28;20056;-78
2021/08/30 03:24:46;;;;;;;11.98;4.10;;;14.70;99.90;;;;;;5076798;28;20111;-78
2021/08/30 03:27:14;;;;;;;10.73;4.07;;;14.90;99.90;;;;;;5076670;28;20070;-77
2021/08/30 03:29:40;;;;;;;10.50;3.90;;;14.90;99.90;;;;;;5076836;28;20400;-77
2021/08/30 03:32:09;;;;;;;11.95;4.50;;;14.90;99.90;;;;;;5076497;28;20017;-77
2021/08/30 03:34:36;;;;;;;10.10;4.10;;;14.80;99.90;;;;;;5076531;28;20067;-78
2021/08/30 03:37:06;;;;;;;12.98;4.43;;;14.70;99.90;;;;;;5075159;28;20027;-77
2021/08/30 03:39:31;;;;;;;13.48;4.57;;;14.60;99.90;;;;;;5076647;28;20099;-78
2021/08/30 03:41:59;;;;;;;12.27;4.78;;;14.60;99.90;;;;;;5076659;28;20059;-78
2021/08/30 03:44:26;;;;;;;16.65;5.55;;;14.40;99.90;;;;;;5076393;28;20039;-77
2021/08/30 03:46:53;;;;;;;10.98;3.83;;;14.30;99.90;;;;;;5076271;28;20485;-77
2021/08/30 03:49:21;;;;;;;14.40;4.82;;;14.30;99.90;;;;;;5076253;28;20032;-77
2021/08/30 03:51:47;;;;;;;12.88;5.03;;;14.20;99.90;;;;;;5074838;28;20122;-77
2021/08/30 03:54:13;;;;;;;11.32;4.38;;;14.10;99.90;;;;;;5076352;28;20031;-77
2021/08/30 03:56:41;;;;;;;12.07;4.72;;;14.10;99.90;;;;;;5076216;28;20016;-78
2021/08/30 03:59:09;;;;;;;11.98;4.57;;;14.10;99.90;;;;;;5075984;28;20027;-78
2021/08/30 04:01:39;;;;;;;10.88;4.28;;;14.20;99.90;;;;;;5074786;28;20108;-76
2021/08/30 04:04:07;;;;;;;10.07;4.35;;;14.50;99.90;;;;;;5075634;28;20048;-78
2021/08/30 04:06:34;;;;;;;10.88;4.50;;;14.70;99.90;;;;;;5074630;28;20361;-77
2021/08/30 04:09:01;;;;;;;11.30;4.45;;;14.70;99.90;;;;;;5075868;28;20392;-77
2021/08/30 04:11:28;;;;;;;10.45;4.32;;;14.70;99.90;;;;;;5074480;28;20501;-78
2021/08/30 04:13:54;;;;;;;11.85;4.75;;;14.80;99.90;;;;;;5075775;28;20016;-77
2021/08/30 04:16:20;;;;;;;12.63;4.65;;;14.80;99.90;;;;;;5075763;28;20013;-77
2021/08/30 04:18:45;;;;;;;13.52;4.68;;;14.70;99.90;;;;;;5074442;28;20504;-77
2021/08/30 04:21:11;;;;;;;13.10;4.95;;;14.70;99.90;;;;;;5075627;28;20029;-78
2021/08/30 04:23:37;;;;;;;10.10;4.35;;;14.70;99.90;;;;;;5076048;28;20035;-78
2021/08/30 04:26:03;;;;;;;14.85;5.05;;;14.60;99.90;;;;;;5075534;28;20032;-78
2021/08/30 04:28:29;;;;;;;10.88;4.28;;;14.40;99.90;;;;;;5075839;28;20078;-78
2021/08/30 04:30:54;;;;;;;13.23;4.65;;;14.50;99.90;;;;;;5075567;28;20025;-77
2021/08/30 04:33:22;;;;;;;13.68;4.93;;;14.60;99.90;;;;;;5075509;28;20024;-77
2021/08/30 04:35:48;;;;;;;11.10;4.70;;;14.40;99.90;;;;;;5075583;28;20025;-78
2021/08/30 04:38:14;;;;;;;13.73;4.70;;;14.50;99.90;;;;;;5075403;28;20093;-77
2021/08/30 04:40:40;;;;;;;11.57;4.82;;;14.50;99.90;;;;;;5075322;28;20028;-78
2021/08/30 04:43:09;;;;;;;11.43;4.30;;;14.20;99.90;;;;;;5073985;28;20024;-79
2021/08/30 04:45:36;;;;;;;11.38;4.63;;;14.40;99.90;;;;;;5075205;28;20029;-78
2021/08/30 04:48:02;;;;;;;10.60;4.28;;;14.40;99.90;;;;;;5075156;28;20036;-78
2021/08/30 04:50:28;;;;;;;11.32;4.50;;;14.30;99.90;;;;;;5075123;28;20502;-77
2021/08/30 04:52:53;;;;;;;14.35;4.95;;;14.50;99.90;;;;;;5075300;28;20044;-78
2021/08/30 04:55:19;;;;;;;12.00;4.60;;;14.60;99.90;;;;;;5074881;28;20055;-78
2021/08/30 04:57:45;;;;;;;12.32;4.53;;;14.80;99.90;;;;;;5075002;28;20020;-77
2021/08/30 05:00:12;;;;;;;13.10;4.43;;;14.90;99.90;;;;;;5074923;28;20070;-77
2021/08/30 05:02:38;;;;;;;12.52;4.78;;;14.90;99.90;;;;;;5075081;28;20059;-79
2021/08/30 05:05:05;;;;;;;9.38;3.67;;;15.00;99.90;;;;;;5074979;28;20025;-78
2021/08/30 05:07:30;;;;;;;10.10;4.00;;;15.00;99.90;;;;;;5074757;28;20036;-78
2021/08/30 05:09:56;;;;;;;13.88;4.30;;;15.00;99.90;;;;;;5074804;28;20077;-78
2021/08/30 05:12:25;;;;;;;10.85;3.80;;;14.90;99.90;;;;;;5074629;28;20503;-77
2021/08/30 05:14:51;;;;;;;13.65;4.47;;;15.10;99.90;;;;;;5074643;28;20016;-78
2021/08/30 05:17:17;;;;;;;12.00;4.68;;;15.20;99.90;;;;;;5073954;28;20353;-78
2021/08/30 05:19:42;;;;;;;10.07;4.35;;;15.10;99.90;;;;;;5074590;28;20021;-78
2021/08/30 05:22:10;;;;;;;11.50;4.20;;;15.10;99.90;;;;;;5074525;28;20051;-78
2021/08/30 05:24:36;;;;;;;12.10;3.78;;;15.00;99.90;;;;;;5074368;28;20103;-78
2021/08/30 05:27:02;;;;;;;11.38;4.32;;;15.10;99.90;;;;;;5074539;28;20504;-78
2021/08/30 05:29:28;;;;;;;10.90;4.20;;;15.10;99.90;;;;;;5074627;28;20056;-78
2021/08/30 05:31:53;;;;;;;10.35;4.20;;;15.20;99.90;;;;;;5074199;28;20504;-77
2021/08/30 05:34:19;;;;;;;13.15;4.63;;;15.10;99.90;;;;;;5074230;28;20484;-78
2021/08/30 05:36:45;;;;;;;10.05;4.07;;;15.10;99.90;;;;;;5074225;28;20022;-78
2021/08/30 05:39:10;;;;;;;;;;;15.00;99.90;;;;;;5074598;28;20023;-77
2021/08/30 05:41:36;;;;;;;;;;;14.90;99.90;;;;;;5074563;28;19905;-78
2021/08/30 05:44:01;;;;;;;;;;;15.00;99.90;;;;;;5074686;28;19915;-78
2021/08/30 05:46:27;;;;;;;15.38;4.68;;;15.20;99.90;;;;;;5074059;28;20366;-78
2021/08/30 05:48:53;;;;;;;14.93;4.28;;;15.50;99.90;;;;;;5074020;28;20032;-78
2021/08/30 05:51:19;;;;;;;14.05;4.07;;;15.60;99.90;;;;;;5073949;28;20065;-77
2021/08/30 05:53:44;;;;;;;11.65;4.32;;;15.60;99.90;;;;;;5073871;28;20116;-78
2021/08/30 05:56:10;;;;;;;12.15;4.07;;;15.60;99.90;;;;;;5074034;28;20021;-78
2021/08/30 05:58:39;;;;;;;11.13;4.10;;;15.60;99.90;;;;;;5073831;28;20025;-78
2021/08/30 06:01:05;;;;;;;12.45;3.92;;;15.50;99.90;;;;;;5073865;28;20104;-77
2021/08/30 06:03:32;;;;;;;9.13;4.03;;;15.60;99.90;;;;;;5073571;28;20052;-78
2021/08/30 06:05:57;;;;;;;13.02;4.20;;;15.80;99.90;;;;;;5073682;28;20021;-77
2021/08/30 06:08:23;;;;;;;;;;;15.80;99.90;;;;;;5074430;28;20096;-77
2021/08/30 06:10:49;;;;;;;9.85;3.78;;;15.90;99.90;;;;;;5073923;28;20411;-77
2021/08/30 06:13:15;;;;;;;;;;;15.90;99.90;;;;;;5073917;28;20103;-77
2021/08/30 06:15:41;;;;;;;13.27;4.32;;;16.00;99.90;;;;;;5073532;28;19904;-77
2021/08/30 06:18:08;;;;;;;11.77;3.80;;;16.10;99.90;;;;;;5073485;28;20024;-77
2021/08/30 06:20:34;;;;;;;12.32;4.20;;;16.20;99.90;;;;;;5072219;28;20019;-79
2021/08/30 06:23:00;;;;;;;;;;;16.50;99.90;;;;;;5074013;28;20028;-78
2021/08/30 06:25:25;;;;;;;11.82;3.95;;;16.70;99.90;;;;;;5073470;28;19904;-79
2021/08/30 06:27:51;;;;;;;;;;;16.70;99.90;;;;;;5073706;28;20417;-78
2021/08/30 06:30:17;;;;;;;11.27;3.92;;;16.60;99.90;;;;;;5073345;28;20250;-77
2021/08/30 06:32:44;;;;;;;;;;;16.60;99.90;;;;;;5073787;28;20115;-77
2021/08/30 06:35:10;;;;;;;12.57;3.63;;;16.40;99.90;;;;;;5073311;28;20372;-77
2021/08/30 06:37:37;;;;;;;17.45;4.15;;;16.60;99.90;;;;;;5073252;28;20013;-78
2021/08/30 06:40:05;;;;;;;20.90;4.85;;;16.80;99.90;;;;;;5073115;28;20480;-79
2021/08/30 06:42:32;;;;;;;14.13;4.32;;;16.90;99.90;;;;;;5073136;28;20399;-77
2021/08/30 06:44:57;;;;;;;19.60;5.88;;;17.10;99.90;;;;;;5073205;28;20500;-78
2021/08/30 06:47:23;;;;;;;;;;;17.20;99.90;;;;;;5073637;28;20066;-77
2021/08/30 06:49:49;;;;;;;20.08;6.95;;;17.00;99.90;;;;;;5073171;28;20368;-77
2021/08/30 06:52:15;;;;;;;;;;;17.10;99.90;;;;;;5073576;28;20039;-79
2021/08/30 06:54:40;;;;;;;14.65;4.68;;;17.20;99.90;;;;;;5073383;28;20355;-78
2021/08/30 06:57:06;;;;;;;;;;;17.10;99.90;;;;;;5073465;28;20024;-77
2021/08/30 06:59:32;;;;;;;13.18;3.72;;;17.30;99.90;;;;;;5073242;28;19999;-78
2021/08/30 07:01:57;;;;;;;;;;;17.30;99.90;;;;;;5073477;28;20053;-78
2021/08/30 07:04:23;;;;;;;16.02;4.30;;;17.50;99.90;;;;;;5088209;28;20011;-78
2021/08/30 07:06:49;;;;;;;;;;;17.70;99.90;;;;;;5073427;28;20017;-78
2021/08/30 07:09:14;;;;;;;12.60;3.50;;;17.90;99.90;;;;;;5073474;28;19904;-78
2021/08/30 07:11:40;;;;;;;;;;;17.90;99.90;;;;;;5073595;28;20028;-77
2021/08/30 07:14:06;;;;;;;13.07;3.80;;;17.90;99.90;;;;;;5072965;28;19904;-77
2021/08/30 07:16:31;;;;;;;;;;;17.90;99.90;;;;;;5073381;28;20024;-78
2021/08/30 07:18:57;;;;;;;13.52;3.95;;;17.80;99.90;;;;;;5073398;28;19995;-78
2021/08/30 07:21:28;;;;;;;;;;;17.90;99.90;;;;;;5073299;28;20025;-78
2021/08/30 07:23:55;;;;;;;13.88;4.00;;;17.80;99.90;;;;;;5072896;28;19908;-78
2021/08/30 07:26:20;;;;;;;17.88;4.18;;;17.90;99.90;;;;;;5072939;28;20046;-79
2021/08/30 07:28:46;;;;;;;13.15;4.00;;;17.90;99.90;;;;;;5071498;28;20115;-78
2021/08/30 07:31:14;;;;;;;;;;;18.10;99.90;;;;;;5073106;28;20032;-77
2021/08/30 07:33:40;;;;;;;14.00;4.00;;;18.20;99.90;;;;;;5072904;28;20277;-78
2021/08/30 07:36:06;;;;;;;11.50;3.70;;;18.20;99.90;;;;;;5072790;28;20023;-79
2021/08/30 07:38:31;;;;;;;;;;;18.40;99.90;;;;;;5071801;28;20404;-77
2021/08/30 07:40:57;;;;;;;15.30;4.22;;;18.50;99.90;;;;;;5076237;28;19904;-77
2021/08/30 07:43:23;;;;;;;16.90;4.10;;;18.40;99.90;;;;;;5076363;28;20546;-78
2021/08/30 07:45:49;;;;;;;16.77;3.92;;;18.50;99.90;;;;;;5075028;28;20024;-77
2021/08/30 07:48:15;;;;;;;15.13;3.83;;;18.80;99.90;;;;;;5076291;28;20078;-79
2021/08/30 07:50:41;;;;;;;11.50;3.65;;;19.20;99.90;;;;;;5074991;28;20025;-79
2021/08/30 07:53:07;;;;;;;12.15;3.70;;;19.60;99.90;;;;;;5076435;28;20035;-78
2021/08/30 07:55:36;;;;;;;12.60;3.60;;;19.50;99.90;;;;;;5076436;28;20024;-78
2021/08/30 07:58:06;;;;;;;9.30;3.28;;;19.90;99.90;;;;;;5076107;28;20553;-77
2021/08/30 08:00:32;;;;;;;10.68;3.70;;;20.00;99.90;;;;;;5075891;28;20450;-78
2021/08/30 08:02:58;;;;;;;12.02;3.30;;;20.40;99.90;;;;;;5075624;28;20068;-78
2021/08/30 08:05:24;;;;;;;10.27;3.22;;;20.90;99.90;;;;;;5076154;28;20173;-78
2021/08/30 08:07:50;;;;;;;11.13;3.33;;;20.90;99.90;;;;;;5075907;28;20024;-78
2021/08/30 08:10:15;;;;;;;9.70;3.10;;;20.60;99.90;;;;;;5075886;28;20606;-79
2021/08/30 08:12:42;;;;;;;11.00;3.35;;;20.30;99.90;;;;;;5075771;28;20086;-78
2021/08/30 08:15:08;;;;;;;11.23;3.15;;;20.40;99.90;;;;;;5075848;28;20021;-78
2021/08/30 08:17:34;;;;;;;11.43;2.95;;;20.40;99.90;;;;;;5076070;28;20027;-77
2021/08/30 08:20:01;;;;;;;10.05;2.92;;;20.10;99.90;;;;;;5075849;28;20025;-78
2021/08/30 08:22:30;;;;;;;11.20;3.15;;;19.90;99.90;;;;;;5075667;28;20042;-80
2021/08/30 08:24:58;;;;;;;10.45;3.03;;;19.90;99.90;;;;;;5075883;28;20024;-78
2021/08/30 08:27:24;;;;;;;12.20;3.42;;;20.40;99.90;;;;;;5075537;28;20032;-78
2021/08/30 08:29:50;;;;;;;11.23;3.17;;;20.50;99.90;;;;;;5075588;28;20500;-77
2021/08/30 08:32:16;;;;;;;9.60;3.38;;;20.50;99.90;;;;;;5075423;28;20064;-79
2021/08/30 08:34:42;;;;;;;10.32;2.80;;;20.60;99.90;;;;;;5075424;28;20020;-79
2021/08/30 08:37:08;;;;;;;8.77;2.90;;;20.70;99.90;;;;;;5075397;28;20033;-79
2021/08/30 08:39:35;;;;;;;8.40;2.88;;;21.10;99.90;;;;;;5075647;28;20019;-78
2021/08/30 08:42:00;;;;;;;10.48;3.03;;;21.00;99.90;;;;;;5075313;28;20040;-78
2021/08/30 08:44:26;;;;;;;10.20;3.10;;;21.20;99.90;;;;;;5075285;28;20017;-79
2021/08/30 08:46:52;;;;;;;12.10;3.78;;;21.40;99.90;;;;;;5075499;28;20029;-78
2021/08/30 08:49:22;;;;;;;13.38;4.05;;;21.70;99.90;;;;;;5075424;28;20025;-78
2021/08/30 08:51:48;;;;;;;12.55;3.60;;;22.00;99.90;;;;;;5074101;28;20047;-78
2021/08/30 08:54:14;;;;;;;9.50;3.40;;;23.60;99.90;;;;;;5075065;28;20388;-79
2021/08/30 08:56:40;;;;;;;9.65;3.33;;;23.60;99.90;;;;;;5075083;28;20425;-79
2021/08/30 08:59:06;;;;;;;11.65;3.53;;;24.90;99.90;;;;;;5075306;28;20101;-77
2021/08/30 09:01:35;;;;;;;9.77;3.58;;;25.40;99.70;;;;;;5075143;28;20111;-79
2021/08/30 09:04:01;;;;;;;12.00;3.40;;;25.00;98.90;;;;;;5074515;28;20128;-79
2021/08/30 09:06:42;;;;;;;12.82;3.53;;;24.30;99.70;;;;;;5074844;28;20395;-79
2021/08/30 09:09:11;;;;;;;9.02;3.15;;;26.30;97.80;;;;;;5074938;28;20020;-79
2021/08/30 09:11:44;;;;;;;13.82;3.60;;;25.90;97.00;;;;;;5074620;28;20021;-79
2021/08/30 09:14:18;;;;;;;13.90;3.33;;;25.30;97.70;;;;;;5074679;28;20394;-79
2021/08/30 09:16:59;;;;;;;10.02;3.13;;;24.10;99.70;;;;;;5074536;28;20496;-79
2021/08/30 09:19:26;;;;;;;12.27;3.20;;;24.30;99.90;;;;;;5074623;28;20380;-79
2021/08/30 09:21:51;;;;;;;8.70;3.20;;;24.80;99.30;;;;;;5074479;28;20032;-80
2021/08/30 09:24:19;;;;;;;20.33;4.43;;;25.10;98.30;;;;;;5074394;28;20020;-80
2021/08/30 09:26:52;;;;;;;11.63;3.10;;;24.60;98.90;;;;;;5074469;28;20067;-79
2021/08/30 09:29:23;;;;;;;8.50;3.20;;;25.10;98.70;;;;;;5072837;28;20024;-80
2021/08/30 09:32:16;;;;;;;8.57;3.08;;;28.40;95.50;;;;;;5074425;28;20077;-81
2021/08/30 09:34:52;;;;;;;16.02;4.57;;;32.40;84.00;;;;;;5074553;28;20577;-79
2021/08/30 09:37:24;;;;;;;28.23;3.90;;;28.90;83.70;;;;;;5072683;28;20024;-79
2021/08/30 09:39:56;;;;;;;10.80;3.40;;;28.00;87.00;;;;;;5072810;28;20025;-79
2021/08/30 09:42:23;;;;;;;9.57;2.95;;;27.50;90.20;;;;;;5074150;28;20036;-79
2021/08/30 09:44:49;;;;;;;7.57;2.65;;;28.10;87.20;;;;;;5072744;28;20036;-80
2021/08/30 09:47:20;;;;;;;8.30;2.70;;;27.50;89.30;;;;;;5074266;28;20025;-80
2021/08/30 09:49:54;;;;;;;9.38;2.90;;;27.00;90.60;;;;;;5072451;28;20029;-79
2021/08/30 09:52:21;;;;;;;10.55;3.20;;;26.30;91.80;;;;;;5073860;28;20024;-80
2021/08/30 09:54:47;;;;;;;11.52;3.33;;;25.70;93.20;;;;;;5073867;28;20043;-80
2021/08/30 09:57:14;;;;;;;9.57;2.65;;;26.40;93.00;;;;;;5073862;28;20385;-79
2021/08/30 09:59:43;;;;;;;10.48;3.13;;;26.40;92.80;;;;;;5073807;28;20040;-79
2021/08/30 10:02:14;;;;;;;9.32;2.72;;;26.00;92.90;;;;;;5073439;28;20043;-79
2021/08/30 10:04:40;;;;;;;8.82;3.00;;;25.80;93.30;;;;;;5073244;28;20101;-78
2021/08/30 10:07:07;;;;;;;9.40;2.78;;;25.70;94.60;;;;;;5073648;28;20024;-79
2021/08/30 10:09:34;;;;;;;10.73;3.00;;;25.40;94.80;;;;;;5073597;28;20024;-80
2021/08/30 10:12:00;;;;;;;9.23;2.75;;;27.30;92.60;;;;;;5073480;28;20518;-80
2021/08/30 10:14:29;;;;;;;9.88;3.05;;;30.20;84.70;;;;;;5073542;28;20469;-79
2021/08/30 10:16:57;;;;;;;9.93;2.58;;;29.60;81.80;;;;;;5073476;28;20171;-79
2021/08/30 10:19:28;;;;;;;9.07;2.92;;;28.60;83.40;;;;;;5072256;28;20453;-79
2021/08/30 10:21:55;;;;;;;8.02;2.70;;;27.00;89.50;;;;;;5073598;28;20031;-79
2021/08/30 10:24:21;;;;;;;8.80;2.60;;;26.90;90.50;;;;;;5073370;28;20024;-80
2021/08/30 10:26:48;;;;;;;6.60;2.30;;;29.00;86.20;;;;;;5073605;28;20077;-80
2021/08/30 10:29:15;;;;;;;9.85;2.60;;;30.50;83.20;;;;;;5072142;28;20032;-80
2021/08/30 10:31:51;;;;;;;7.65;2.22;;;31.40;77.50;;;;;;5072005;28;20020;-80
2021/08/30 10:34:33;;;;;;;6.70;2.40;;;31.70;74.50;;;;;;5072287;28;20373;-80
2021/08/30 10:37:00;;;;;;;8.68;2.60;;;33.50;71.60;;;;;;5073608;28;20036;-79
2021/08/30 10:39:40;;;;;;;5.35;1.98;;;34.00;63.70;;;;;;5073429;28;20077;-80
2021/08/30 10:42:10;;;;;;;7.78;2.58;;;33.70;62.20;;;;;;5073250;28;20119;-79
2021/08/30 10:44:51;;;;;;;7.30;2.22;;;30.70;66.90;;;;;;5073533;28;20013;-79
2021/08/30 10:47:18;;;;;;;9.48;2.35;;;28.80;73.00;;;;;;5073343;28;20426;-79
2021/08/30 10:49:44;;;;;;;7.40;2.28;;;27.20;80.00;;;;;;5073149;28;20024;-79
2021/08/30 10:52:14;;;;;;;9.35;2.40;;;25.90;86.50;;;;;;5073082;28;20166;-79
2021/08/30 10:54:59;;;;;;;9.20;2.35;;;25.70;90.30;;;;;;5073630;28;20028;-79
2021/08/30 10:57:32;;;;;;;9.10;2.60;;;25.30;92.00;;;;;;5073328;28;20078;-80
2021/08/30 10:59:59;;;;;;;7.05;2.30;;;24.70;95.90;;;;;;5073085;28;20519;-79
2021/08/30 11:02:38;;;;;;;17.83;3.55;;;24.20;97.60;;;;;;5073319;28;20020;-79
2021/08/30 11:05:08;;;;;;;12.98;2.97;;;23.60;99.60;;;;;;5073112;28;20037;-79
2021/08/30 11:07:35;;;;;;;10.10;3.03;;;23.50;99.90;;;;;;5073048;28;20036;-78
2021/08/30 11:10:02;;;;;;;11.15;3.03;;;24.10;99.90;;;;;;5073063;28;20024;-78
2021/08/30 11:12:28;;;;;;;8.52;2.80;;;26.80;98.80;;;;;;5072872;28;20469;-79
2021/08/30 11:14:58;;;;;;;12.93;4.75;;;27.60;95.50;;;;;;5075119;28;20101;-80
2021/08/30 11:17:31;;;;;;;9.98;3.15;;;27.90;95.50;;;;;;5075662;28;20035;-79
2021/08/30 11:19:59;;;;;;;8.20;2.70;;;28.00;94.80;;;;;;5075543;28;20027;-79
2021/08/30 11:22:25;;;;;;;5.55;2.03;;;28.60;93.00;;;;;;5076873;28;20028;-81
2021/08/30 11:24:51;;;;;;;6.60;2.33;;;28.30;91.80;;;;;;5076868;28;20024;-79
2021/08/30 11:27:29;;;;;;;9.70;2.50;;;27.60;92.30;;;;;;5076750;28;20389;-79
2021/08/30 11:30:00;;;;;;;7.80;2.60;;;26.40;93.90;;;;;;5076704;28;20506;-80
2021/08/30 11:32:28;;;;;;;7.95;2.50;;;26.10;94.00;;;;;;5076537;28;20086;-78
2021/08/30 11:34:55;;;;;;;7.53;2.35;;;25.30;96.10;;;;;;5076530;28;20016;-79
2021/08/30 11:37:31;;;;;;;6.75;2.40;;;25.00;98.30;;;;;;5076657;28;20074;-79
2021/08/30 11:39:59;;;;;;;7.25;2.30;;;24.90;97.90;;;;;;5076636;28;20024;-79
2021/08/30 11:42:31;;;;;;;8.70;2.60;;;24.40;98.00;;;;;;5076397;28;20109;-80
2021/08/30 11:44:59;;;;;;;6.88;2.40;;;24.30;99.40;;;;;;5077123;28;20051;-78
2021/08/30 11:47:26;;;;;;;7.57;2.63;;;24.30;99.20;;;;;;5076298;28;20104;-78
2021/08/30 11:49:54;;;;;;;7.47;2.22;;;23.90;99.90;;;;;;5076507;28;20549;-78
2021/08/30 11:52:25;;;;;;;7.90;2.45;;;24.00;99.90;;;;;;5076223;28;20067;-80
2021/08/30 11:55:04;;;;;;;7.20;2.22;;;24.20;99.90;;;;;;5076525;28;20076;-79
2021/08/30 11:57:39;;;;;;;8.32;2.72;;;25.40;98.40;;;;;;5076056;28;20032;-79
2021/08/30 12:00:07;;;;;;;5.43;2.20;;;26.10;97.90;;;;;;5076228;28;20012;-78
2021/08/30 12:02:34;;;;;;;6.90;2.10;;;27.60;95.10;;;;;;5075975;28;20024;-80
2021/08/30 12:05:02;;;;;;;7.53;2.17;;;28.10;92.60;;;;;;5075959;28;20109;-79
2021/08/30 12:07:34;;;;;;;5.40;2.10;;;28.00;91.10;;;;;;5075997;28;20052;-79
2021/08/30 12:10:00;;;;;;;6.13;2.17;;;27.40;91.40;;;;;;5076183;28;20063;-77
2021/08/30 12:12:30;;;;;;;7.15;2.15;;;26.70;92.10;;;;;;5076013;28;20032;-79
2021/08/30 12:15:05;;;;;;;9.00;2.03;;;25.90;93.40;;;;;;5074518;28;20052;-79
2021/08/30 12:17:37;;;;;;;9.13;2.00;;;25.60;94.00;;;;;;5076292;28;20020;-78
2021/08/30 12:20:09;;;;;;;6.35;2.10;;;25.80;93.70;;;;;;5075940;28;20056;-79
2021/08/30 12:22:45;;;;;;;5.63;2.10;;;25.50;94.20;;;;;;5075695;28;20023;-79
2021/08/30 12:25:20;;;;;;;5.07;2.03;;;25.00;94.90;;;;;;5075472;28;20059;-80
2021/08/30 12:27:47;;;;;;;14.88;2.40;;;24.90;95.50;;;;;;5075876;28;20028;-79
2021/08/30 12:30:33;;;;;;;9.27;2.10;;;24.90;95.50;;;;;;5075607;28;20373;-78
2021/08/30 12:32:59;;;;;;;7.40;2.03;;;25.20;95.20;;;;;;5075488;28;20586;-80
2021/08/30 12:35:46;;;;;;;6.85;2.30;;;25.30;95.40;;;;;;5075495;28;20108;-80
2021/08/30 12:38:23;;;;;;;5.53;2.00;;;26.10;94.10;;;;;;5075740;28;20466;-80
2021/08/30 12:40:51;;;;;;;7.82;2.53;;;26.40;93.50;;;;;;5075528;28;20028;-79
2021/08/30 12:43:18;;;;;;;7.85;2.42;;;26.50;92.30;;;;;;5075631;28;20020;-79
2021/08/30 12:45:45;;;;;;;9.60;2.55;;;25.90;93.20;;;;;;5075407;28;20020;-79
2021/08/30 12:48:11;;;;;;;10.45;2.40;;;25.90;93.90;;;;;;5075471;28;20024;-78
2021/08/30 12:50:39;;;;;;;9.80;2.58;;;25.50;94.40;;;;;;5075226;28;20496;-79
2021/08/30 12:53:06;;;;;;;11.65;2.97;;;25.10;94.60;;;;;;5075035;28;20023;-78
2021/08/30 12:55:32;;;;;;;6.68;2.50;;;24.60;95.30;;;;;;5075130;28;20432;-79
2021/08/30 12:57:58;;;;;;;9.90;2.95;;;24.20;96.70;;;;;;5075047;28;20025;-78